createdAt,value
2023-04-12T00:02:15.138Z,2.38
2023-04-12T00:07:18.628Z,2.55
2023-04-12T00:12:20.737Z,2.40
2023-04-12T00:17:22.257Z,2.10
2023-04-12T00:22:23.766Z,2.25
2023-04-12T00:27:25.882Z,2.63
2023-04-12T00:32:27.710Z,2.45
2023-04-12T00:37:29.506Z,2.33
2023-04-12T00:42:31.234Z,2.47
2023-04-12T00:47:35.182Z,2.55
2023-04-12T00:52:37.682Z,2.30
2023-04-12T00:57:39.871Z,3.10
2023-04-12T01:02:47.193Z,2.60
2023-04-12T01:08:06.257Z,2.30
2023-04-12T01:13:07.717Z,2.60
2023-04-12T01:18:11.047Z,2.00
2023-04-12T01:23:23.976Z,2.13
2023-04-12T01:28:29.159Z,2.30
2023-04-12T01:33:34.022Z,1.95
2023-04-12T01:38:35.698Z,1.60
2023-04-12T01:43:44.036Z,1.90
2023-04-12T01:48:49.256Z,1.80
2023-04-12T01:53:54.980Z,1.80
2023-04-12T01:58:57.325Z,1.50
2023-04-12T02:04:02.656Z,1.42
2023-04-12T02:09:06.366Z,1.50
2023-04-12T02:14:07.796Z,1.58
2023-04-12T02:19:10.695Z,1.63
2023-04-12T02:24:12.588Z,1.60
2023-04-12T02:29:14.021Z,1.73
2023-04-12T02:34:16.095Z,1.80
2023-04-12T02:39:18.797Z,1.80
2023-04-12T02:44:20.592Z,1.77
2023-04-12T02:49:22.119Z,1.60
2023-04-12T02:54:24.031Z,1.90
2023-04-12T02:59:25.572Z,1.92
2023-04-12T03:04:30.680Z,1.60
2023-04-12T03:09:32.525Z,2.13
2023-04-12T03:14:34.084Z,1.70
2023-04-12T03:19:36.954Z,1.50
2023-04-12T03:24:38.399Z,1.70
2023-04-12T03:29:39.822Z,2.00
2023-04-12T03:34:41.408Z,1.90
2023-04-12T03:39:47.978Z,2.00
2023-04-12T03:44:49.789Z,2.20
2023-04-12T03:50:05.960Z,1.90
2023-04-12T03:55:13.610Z,1.95
2023-04-12T04:00:15.240Z,1.95
2023-04-12T04:05:16.882Z,2.38
2023-04-12T04:10:18.366Z,2.10
2023-04-12T04:15:20.473Z,2.10
2023-04-12T04:20:21.975Z,2.10
2023-04-12T04:25:29.813Z,1.80
2023-04-12T04:30:34.391Z,1.70
2023-04-12T04:35:39.211Z,1.80
2023-04-12T04:40:40.737Z,1.83
2023-04-12T04:45:42.973Z,1.80
2023-04-12T04:50:45.034Z,2.13
2023-04-12T04:55:47.811Z,1.70
2023-04-12T05:00:49.930Z,1.83
2023-04-12T05:05:53.068Z,1.58
2023-04-12T05:10:55.364Z,1.85
2023-04-12T05:15:56.856Z,1.88
2023-04-12T05:21:02.595Z,1.67
2023-04-12T05:26:04.487Z,1.80
2023-04-12T05:31:07.430Z,1.58
2023-04-12T05:36:09.096Z,1.77
2023-04-12T05:41:10.592Z,1.80
2023-04-12T05:46:12.933Z,1.60
2023-04-12T05:51:14.436Z,1.40
2023-04-12T05:56:16.840Z,1.42
2023-04-12T06:01:19.835Z,1.50
2023-04-12T06:06:21.426Z,1.60
2023-04-12T06:11:22.868Z,1.70
2023-04-12T06:16:24.368Z,2.05
2023-04-12T06:21:25.849Z,2.42
2023-04-12T06:26:32.167Z,2.40
2023-04-12T06:31:41.509Z,2.97
2023-04-12T06:36:43.647Z,2.65
2023-04-12T06:41:47.410Z,2.50
2023-04-12T06:46:48.932Z,2.90
2023-04-12T06:51:50.408Z,2.78
2023-04-12T06:56:51.879Z,2.95
2023-04-12T07:01:53.336Z,3.47
2023-04-12T07:06:54.807Z,3.90
2023-04-12T07:11:56.265Z,3.30
2023-04-12T07:16:57.740Z,3.40
2023-04-12T07:21:59.289Z,3.95
2023-04-12T07:27:00.880Z,3.85
2023-04-12T07:32:03.108Z,3.13
2023-04-12T07:37:04.539Z,3.58
2023-04-12T07:42:06.261Z,3.20
2023-04-12T07:47:07.679Z,2.65
2023-04-12T07:52:09.150Z,3.00
2023-04-12T07:57:10.812Z,2.88
2023-04-12T08:02:12.967Z,2.72
2023-04-12T08:07:14.727Z,3.10
2023-04-12T08:12:16.183Z,3.10
2023-04-12T08:17:17.798Z,2.88
2023-04-12T08:22:19.562Z,2.85
2023-04-12T08:27:21.099Z,2.85
2023-04-12T08:32:23.263Z,2.88
2023-04-12T08:37:25.294Z,2.90
2023-04-12T08:42:30.483Z,2.70
2023-04-12T08:47:32.838Z,3.00
2023-04-12T08:52:35.483Z,3.72
2023-04-12T08:57:38.320Z,3.00
2023-04-12T09:02:43.310Z,3.17
2023-04-12T09:07:45.010Z,3.28
2023-04-12T09:12:47.217Z,2.63
2023-04-12T09:17:49.678Z,2.60
2023-04-12T09:22:52.864Z,2.83
2023-04-12T09:27:57.219Z,2.38
2023-04-12T09:33:10.541Z,2.35
2023-04-12T09:38:12.399Z,2.22
2023-04-12T09:43:13.899Z,1.95
2023-04-12T09:48:19.980Z,1.92
2023-04-12T09:53:21.688Z,2.28
2023-04-12T09:58:24.284Z,2.33
2023-04-12T10:03:26.169Z,3.30
2023-04-12T10:08:27.760Z,2.88
2023-04-12T10:13:32.226Z,2.30
2023-04-12T10:18:35.716Z,3.03
2023-04-12T10:23:37.569Z,2.38
2023-04-12T10:28:39.271Z,2.10
2023-04-12T10:33:42.158Z,2.40
2023-04-12T10:38:47.872Z,2.22
2023-04-12T10:43:50.143Z,2.85
2023-04-12T10:48:52.535Z,2.53
2023-04-12T10:54:12.358Z,2.45
2023-04-12T10:59:14.313Z,2.45
2023-04-12T11:04:16.835Z,2.70
2023-04-12T11:09:33.755Z,2.33
2023-04-12T11:14:36.590Z,2.40
2023-04-12T11:19:42.157Z,2.35
2023-04-12T11:24:44.929Z,2.05
2023-04-12T11:29:48.326Z,1.88
2023-04-12T11:34:49.950Z,1.80
2023-04-12T11:39:52.288Z,2.22
2023-04-12T11:44:57.728Z,2.20
2023-04-12T11:50:02.019Z,2.20
2023-04-12T11:55:06.598Z,2.22
2023-04-12T12:00:08.432Z,2.15
2023-04-12T12:05:11.376Z,2.58
2023-04-12T12:10:18.413Z,2.42
2023-04-12T12:15:20.216Z,2.08
2023-04-12T12:20:22.343Z,2.30
2023-04-12T12:25:23.896Z,2.20
2023-04-12T12:30:25.610Z,2.65
2023-04-12T12:35:27.636Z,3.00
2023-04-12T12:40:32.303Z,2.28
2023-04-12T12:45:34.193Z,2.20
2023-04-12T12:50:36.476Z,2.10
2023-04-12T12:55:38.301Z,2.67
2023-04-12T13:00:41.411Z,2.10
2023-04-12T13:05:42.873Z,2.45
2023-04-12T13:10:44.689Z,3.00
2023-04-12T13:15:49.232Z,2.90
2023-04-12T13:20:50.706Z,2.50
2023-04-12T13:25:53.117Z,2.13
2023-04-12T13:30:54.685Z,2.80
2023-04-12T13:35:56.383Z,2.05
2023-04-12T13:40:57.814Z,2.78
2023-04-12T13:45:59.613Z,1.75
2023-04-12T13:51:01.185Z,2.35
2023-04-12T13:56:02.683Z,2.42
2023-04-12T14:01:04.248Z,1.92
2023-04-12T14:06:06.267Z,1.90
2023-04-12T14:11:07.780Z,2.10
2023-04-12T14:16:09.458Z,1.52
2023-04-12T14:21:11.266Z,1.33
2023-04-12T14:26:16.408Z,1.08
2023-04-12T14:31:18.038Z,1.13
2023-04-12T14:36:19.553Z,1.10
2023-04-12T14:41:21.194Z,1.50
2023-04-12T14:46:23.745Z,1.15
2023-04-12T14:51:27.873Z,1.77
2023-04-12T14:56:31.265Z,1.10
2023-04-12T15:01:34.089Z,1.52
2023-04-12T15:06:37.330Z,1.60
2023-04-12T15:11:39.791Z,1.52
2023-04-12T15:16:42.907Z,1.20
2023-04-12T15:21:44.346Z,1.00
2023-04-12T15:26:48.440Z,0.98
2023-04-12T15:31:50.752Z,0.88
2023-04-12T15:36:52.884Z,1.10
2023-04-12T15:41:54.386Z,1.10
2023-04-12T15:47:07.858Z,1.05
2023-04-12T15:52:13.034Z,1.15
2023-04-12T15:57:15.758Z,1.33
2023-04-12T16:02:17.290Z,1.30
2023-04-12T16:07:18.878Z,1.38
2023-04-12T16:12:20.459Z,1.60
2023-04-12T16:17:22.817Z,1.63
2023-04-12T16:22:24.410Z,1.35
2023-04-12T16:27:29.459Z,1.30
2023-04-12T16:32:31.652Z,1.77
2023-04-12T16:37:33.271Z,2.03
2023-04-12T16:42:34.708Z,2.13
2023-04-12T16:47:39.417Z,1.98
2023-04-12T16:52:41.715Z,1.50
2023-04-12T16:57:44.818Z,2.30
2023-04-12T17:02:47.320Z,1.92
2023-04-12T17:07:50.151Z,1.92
2023-04-12T17:12:55.784Z,2.17
2023-04-12T17:18:01.582Z,2.30
2023-04-12T17:23:03.438Z,2.38
2023-04-12T17:28:05.167Z,2.92
2023-04-12T17:33:07.992Z,2.63
2023-04-12T17:38:09.552Z,2.83
2023-04-12T17:43:11.676Z,2.40
2023-04-12T17:48:14.954Z,2.40
2023-04-12T17:53:16.541Z,2.15
2023-04-12T17:58:18.978Z,1.88
2023-04-12T18:03:20.523Z,2.00
2023-04-12T18:08:24.970Z,2.72
2023-04-12T18:13:27.343Z,2.00
2023-04-12T18:18:28.876Z,2.10
2023-04-12T18:23:30.336Z,1.77
2023-04-12T18:28:31.929Z,2.08
2023-04-12T18:33:33.369Z,2.13
2023-04-12T18:38:35.645Z,2.25
2023-04-12T18:43:37.103Z,1.98
2023-04-12T18:48:38.708Z,1.92
2023-04-12T18:53:40.443Z,1.67
2023-04-12T18:58:54.577Z,1.73
2023-04-12T19:04:00.045Z,1.50
2023-04-12T19:09:02.347Z,1.30
2023-04-12T19:14:04.420Z,1.65
2023-04-12T19:19:06.048Z,1.40
2023-04-12T19:24:07.798Z,1.67
2023-04-12T19:29:09.264Z,1.30
2023-04-12T19:34:11.934Z,1.33
2023-04-12T19:39:13.583Z,1.35
2023-04-12T19:44:15.260Z,2.00
2023-04-12T19:49:16.660Z,1.73
2023-04-12T19:54:18.920Z,1.48
2023-04-12T19:59:21.007Z,1.50
2023-04-12T20:04:25.356Z,1.60
2023-04-12T20:09:26.982Z,2.13
2023-04-12T20:14:28.533Z,1.83
2023-04-12T20:19:30.075Z,1.95
2023-04-12T20:24:34.555Z,2.35
2023-04-12T20:29:36.253Z,2.40
2023-04-12T20:34:37.851Z,2.58
2023-04-12T20:39:39.850Z,3.10
2023-04-12T20:44:41.828Z,2.60
2023-04-12T20:49:43.431Z,2.47
2023-04-12T20:54:48.339Z,2.45
2023-04-12T20:59:51.597Z,2.42
2023-04-12T21:04:53.176Z,2.50
2023-04-12T21:09:54.736Z,3.20
2023-04-12T21:14:58.150Z,2.63
2023-04-12T21:19:59.616Z,2.38
2023-04-12T21:25:01.090Z,2.45
2023-04-12T21:30:03.095Z,2.85
2023-04-12T21:35:07.914Z,2.60
2023-04-12T21:40:09.751Z,2.42
2023-04-12T21:45:13.638Z,2.10
2023-04-12T21:50:15.516Z,1.77
2023-04-12T21:55:18.671Z,2.13
2023-04-12T22:00:20.233Z,2.08
2023-04-12T22:05:21.725Z,2.10
2023-04-12T22:10:23.164Z,2.00
2023-04-12T22:15:24.698Z,2.20
2023-04-12T22:20:28.387Z,1.80
2023-04-12T22:25:31.385Z,1.80
2023-04-12T22:30:32.960Z,2.00
2023-04-12T22:35:35.242Z,1.58
2023-04-12T22:40:37.150Z,1.83
2023-04-12T22:45:39.481Z,1.40
2023-04-12T22:50:41.074Z,1.67
2023-04-12T22:55:43.314Z,1.10
2023-04-12T23:00:44.752Z,1.20
2023-04-12T23:05:47.126Z,1.45
2023-04-12T23:10:49.479Z,1.40
2023-04-12T23:15:51.015Z,1.77
2023-04-12T23:20:54.001Z,1.20
2023-04-12T23:25:56.038Z,1.20
2023-04-12T23:30:59.070Z,1.45
2023-04-12T23:36:05.136Z,1.38
2023-04-12T23:41:07.557Z,1.10
2023-04-12T23:46:09.027Z,1.45
2023-04-12T23:51:10.556Z,1.55
2023-04-12T23:56:12.038Z,1.05
